createdAt,value
2019-05-02T00:01:24.543Z,105.97
2019-05-02T00:03:53.731Z,110.53
2019-05-02T00:06:23.194Z,111.10
2019-05-02T00:08:52.374Z,110.17
2019-05-02T00:11:21.759Z,106.20
2019-05-02T00:13:51.329Z,116.33
2019-05-02T00:16:20.962Z,115.43
2019-05-02T00:18:50.315Z,114.00
2019-05-02T00:21:19.532Z,116.50
2019-05-02T00:23:49.328Z,112.03
2019-05-02T00:26:18.577Z,111.00
2019-05-02T00:28:49.871Z,110.53
2019-05-02T00:31:21.792Z,116.23
2019-05-02T00:33:51.382Z,116.43
2019-05-02T00:36:20.582Z,121.93
2019-05-02T00:38:49.733Z,116.53
2019-05-02T00:41:19.032Z,110.80
2019-05-02T00:43:48.471Z,119.77
2019-05-02T00:46:17.702Z,110.63
2019-05-02T00:48:54.174Z,113.10
2019-05-02T00:51:26.872Z,112.70
2019-05-02T00:53:55.510Z,114.70
2019-05-02T00:56:25.040Z,117.33
2019-05-02T00:58:54.283Z,132.40
2019-05-02T01:01:45.683Z,118.47
2019-05-02T01:04:32.229Z,124.13
2019-05-02T01:07:02.133Z,117.93
2019-05-02T01:09:32.577Z,116.23
2019-05-02T01:12:03.329Z,122.93
2019-05-02T01:14:33.247Z,124.97
2019-05-02T01:17:02.551Z,117.87
2019-05-02T01:19:31.860Z,125.57
2019-05-02T01:22:01.411Z,132.90
2019-05-02T01:24:34.232Z,130.53
2019-05-02T01:27:13.500Z,123.53
2019-05-02T01:29:47.733Z,120.67
2019-05-02T01:32:30.013Z,124.70
2019-05-02T01:35:15.020Z,131.57
2019-05-02T01:38:15.682Z,133.57
2019-05-02T01:40:48.107Z,122.03
2019-05-02T01:43:25.792Z,127.77
2019-05-02T01:45:55.763Z,131.53
2019-05-02T01:48:25.727Z,126.97
2019-05-02T01:50:54.888Z,125.40
2019-05-02T01:53:24.432Z,121.90
2019-05-02T01:55:57.265Z,127.33
2019-05-02T01:58:24.854Z,128.50
2019-05-02T02:00:54.071Z,132.30
2019-05-02T02:03:23.319Z,130.67
2019-05-02T02:05:52.546Z,138.63
2019-05-02T02:08:21.815Z,130.73
2019-05-02T02:10:56.071Z,129.17
2019-05-02T02:13:22.457Z,129.20
2019-05-02T02:15:52.065Z,132.93
2019-05-02T02:18:27.213Z,131.27
2019-05-02T02:21:25.865Z,119.73
2019-05-02T02:24:08.373Z,123.53
2019-05-02T02:26:37.641Z,145.00
2019-05-02T02:29:07.890Z,134.83
2019-05-02T02:31:39.757Z,141.93
2019-05-02T02:34:09.366Z,121.30
2019-05-02T02:36:38.621Z,125.67
2019-05-02T02:39:14.221Z,123.90
2019-05-02T02:41:39.608Z,127.20
2019-05-02T02:44:26.725Z,132.50
2019-05-02T02:46:55.984Z,125.73
2019-05-02T02:49:25.142Z,117.10
2019-05-02T02:51:58.110Z,119.93
2019-05-02T02:54:26.451Z,116.40
2019-05-02T02:56:55.981Z,122.70
2019-05-02T02:59:26.145Z,120.87
2019-05-02T03:02:03.075Z,119.33
2019-05-02T03:04:28.334Z,116.57
2019-05-02T03:06:57.929Z,119.43
2019-05-02T03:09:28.955Z,121.53
2019-05-02T03:12:15.826Z,120.47
2019-05-02T03:14:50.240Z,125.73
2019-05-02T03:17:25.371Z,112.80
2019-05-02T03:19:54.231Z,119.37
2019-05-02T03:22:22.111Z,109.37
2019-05-02T03:24:51.306Z,119.50
2019-05-02T03:27:20.945Z,121.63
2019-05-02T03:29:50.613Z,116.43
2019-05-02T03:32:32.199Z,120.30
2019-05-02T03:34:53.392Z,141.43
2019-05-02T03:37:22.463Z,144.83
2019-05-02T03:39:57.193Z,138.03
2019-05-02T03:42:23.719Z,141.33
2019-05-02T03:44:56.947Z,148.70
2019-05-02T03:47:23.902Z,142.80
2019-05-02T03:49:53.091Z,138.67
2019-05-02T03:52:22.362Z,141.80
2019-05-02T03:54:52.588Z,139.63
2019-05-02T03:57:32.286Z,130.20
2019-05-02T03:59:53.029Z,132.30
2019-05-02T04:02:22.606Z,133.40
2019-05-02T04:04:54.453Z,126.47
2019-05-02T04:07:22.750Z,146.43
2019-05-02T04:09:52.107Z,141.57
2019-05-02T04:12:22.175Z,141.37
2019-05-02T04:14:55.472Z,143.87
2019-05-02T04:17:29.052Z,160.53
2019-05-02T04:19:54.757Z,156.27
2019-05-02T04:22:24.670Z,148.30
2019-05-02T04:24:56.898Z,157.20
2019-05-02T04:27:27.913Z,156.57
2019-05-02T04:30:03.561Z,162.10
2019-05-02T04:32:28.754Z,161.23
2019-05-02T04:34:58.170Z,158.70
2019-05-02T04:37:27.739Z,162.90
2019-05-02T04:39:59.082Z,171.30
2019-05-02T04:42:29.424Z,162.80
2019-05-02T04:45:13.996Z,160.37
2019-05-02T04:47:29.875Z,157.13
2019-05-02T04:49:59.196Z,158.77
2019-05-02T04:52:28.911Z,162.33
2019-05-02T04:55:08.341Z,159.43
2019-05-02T04:57:37.039Z,155.77
2019-05-02T05:00:06.292Z,146.20
2019-05-02T05:02:36.534Z,147.27
2019-05-02T05:05:04.359Z,159.40
2019-05-02T05:07:41.078Z,157.63
2019-05-02T05:10:05.095Z,157.97
2019-05-02T05:12:40.060Z,159.60
2019-05-02T05:15:07.850Z,155.77
2019-05-02T05:17:37.512Z,169.13
2019-05-02T05:20:14.212Z,164.40
2019-05-02T05:22:44.231Z,167.93
2019-05-02T05:25:17.785Z,152.17
2019-05-02T05:27:45.226Z,160.63
2019-05-02T05:30:15.879Z,158.10
2019-05-02T05:32:45.367Z,155.83
2019-05-02T05:35:14.558Z,146.93
2019-05-02T05:37:51.500Z,154.03
2019-05-02T05:40:22.561Z,149.80
2019-05-02T05:42:50.158Z,149.73
2019-05-02T05:45:19.334Z,152.87
2019-05-02T05:47:52.419Z,145.97
2019-05-02T05:50:19.656Z,145.47
2019-05-02T05:52:51.759Z,142.13
2019-05-02T05:55:24.014Z,141.00
2019-05-02T05:57:59.551Z,137.13
2019-05-02T06:00:25.106Z,136.77
2019-05-02T06:03:01.180Z,147.87
2019-05-02T06:05:27.645Z,133.63
2019-05-02T06:07:57.539Z,129.60
2019-05-02T06:10:27.676Z,127.50
2019-05-02T06:12:56.958Z,128.47
2019-05-02T06:15:26.521Z,132.77
2019-05-02T06:18:00.036Z,120.50
2019-05-02T06:20:30.553Z,126.00
2019-05-02T06:22:59.900Z,129.17
2019-05-02T06:25:34.360Z,118.63
2019-05-02T06:28:00.219Z,119.57
2019-05-02T06:30:31.202Z,135.90
2019-05-02T06:33:01.934Z,121.23
2019-05-02T06:35:31.538Z,112.80
2019-05-02T06:38:00.892Z,122.00
2019-05-02T06:40:30.143Z,119.53
2019-05-02T06:42:59.383Z,107.87
2019-05-02T06:45:32.277Z,102.43
2019-05-02T06:48:01.182Z,100.90
2019-05-02T06:50:33.262Z,97.67
2019-05-02T06:53:04.301Z,98.27
2019-05-02T06:55:36.556Z,93.17
2019-05-02T06:58:07.988Z,94.63
2019-05-02T07:00:48.258Z,91.07
2019-05-02T07:03:10.263Z,100.17
2019-05-02T07:05:37.748Z,87.40
2019-05-02T07:08:11.844Z,90.33
2019-05-02T07:10:44.769Z,87.17
2019-05-02T07:13:11.436Z,90.17
2019-05-02T07:15:51.810Z,87.83
2019-05-02T07:18:22.241Z,84.10
2019-05-02T07:20:51.497Z,81.63
2019-05-02T07:23:20.942Z,78.67
2019-05-02T07:25:50.962Z,76.27
2019-05-02T07:28:21.447Z,77.27
2019-05-02T07:30:54.484Z,71.33
2019-05-02T07:33:22.906Z,75.00
2019-05-02T07:35:55.148Z,78.17
2019-05-02T07:38:25.583Z,67.53
2019-05-02T07:40:55.315Z,71.30
2019-05-02T07:43:24.520Z,68.30
2019-05-02T07:45:54.208Z,68.83
2019-05-02T07:48:23.821Z,66.93
2019-05-02T07:50:54.009Z,70.73
2019-05-02T07:53:23.544Z,65.87
2019-05-02T07:55:52.838Z,64.83
2019-05-02T07:58:22.345Z,69.10
2019-05-02T08:00:51.929Z,67.80
2019-05-02T08:03:21.453Z,61.57
2019-05-02T08:05:54.429Z,60.83
2019-05-02T08:08:25.122Z,62.10
2019-05-02T08:11:01.434Z,66.60
2019-05-02T08:13:25.352Z,62.00
2019-05-02T08:15:54.916Z,66.63
2019-05-02T08:18:25.251Z,60.83
2019-05-02T08:20:56.055Z,71.03
2019-05-02T08:23:27.863Z,70.13
2019-05-02T08:25:57.578Z,67.03
2019-05-02T08:28:38.860Z,68.43
2019-05-02T08:31:08.127Z,66.63
2019-05-02T08:33:37.357Z,66.43
2019-05-02T08:36:06.574Z,64.77
2019-05-02T08:38:35.810Z,64.83
2019-05-02T08:41:05.736Z,67.20
2019-05-02T08:43:34.911Z,68.93
2019-05-02T08:46:04.557Z,64.93
2019-05-02T08:48:36.383Z,61.93
2019-05-02T08:51:07.632Z,66.43
2019-05-02T08:53:38.465Z,67.33
2019-05-02T08:56:07.713Z,63.40
2019-05-02T08:58:36.881Z,61.60
2019-05-02T09:01:09.318Z,60.73
2019-05-02T09:03:54.783Z,60.37
2019-05-02T09:06:08.753Z,52.87
2019-05-02T09:08:38.607Z,52.20
2019-05-02T09:11:07.891Z,45.27
2019-05-02T09:13:37.183Z,43.20
2019-05-02T09:16:06.461Z,44.53
2019-05-02T09:18:40.582Z,39.17
2019-05-02T09:21:07.299Z,39.27
2019-05-02T09:23:37.227Z,34.30
2019-05-02T09:26:06.671Z,32.50
2019-05-02T09:28:35.854Z,30.67
2019-05-02T09:31:06.686Z,28.17
2019-05-02T09:33:36.763Z,26.87
2019-05-02T09:36:07.302Z,26.80
2019-05-02T09:38:36.496Z,28.93
2019-05-02T09:41:16.208Z,29.30
2019-05-02T09:43:38.986Z,33.30
2019-05-02T09:46:12.820Z,31.07
2019-05-02T09:48:39.305Z,28.77
2019-05-02T09:51:15.607Z,32.63
2019-05-02T09:53:39.438Z,34.27
2019-05-02T09:56:08.592Z,33.20
2019-05-02T09:58:37.834Z,34.23
2019-05-02T10:01:19.996Z,33.50
2019-05-02T10:03:51.701Z,33.00
2019-05-02T10:06:22.818Z,30.87
2019-05-02T10:08:52.196Z,32.37
2019-05-02T10:11:22.479Z,36.00
2019-05-02T10:13:55.313Z,40.40
2019-05-02T10:16:27.139Z,41.67
2019-05-02T10:18:54.790Z,43.27
2019-05-02T10:21:24.114Z,47.87
2019-05-02T10:23:59.024Z,50.63
2019-05-02T10:26:24.882Z,54.80
2019-05-02T10:28:54.307Z,54.37
2019-05-02T10:31:27.496Z,59.30
2019-05-02T10:33:54.844Z,57.60
2019-05-02T10:36:24.394Z,59.57
2019-05-02T10:38:58.880Z,49.97
2019-05-02T10:41:24.618Z,57.03
2019-05-02T10:43:57.762Z,57.47
2019-05-02T10:46:37.663Z,61.00
2019-05-02T10:49:14.657Z,61.83
2019-05-02T10:51:49.170Z,61.13
2019-05-02T10:54:14.752Z,59.70
2019-05-02T10:56:44.016Z,63.40
2019-05-02T10:59:13.615Z,58.17
2019-05-02T11:01:54.108Z,55.93
2019-05-02T11:04:28.961Z,56.03
2019-05-02T11:06:56.747Z,54.77
2019-05-02T11:09:26.358Z,54.27
2019-05-02T11:11:56.232Z,53.63
2019-05-02T11:14:32.463Z,50.73
2019-05-02T11:17:08.693Z,50.47
2019-05-02T11:19:44.432Z,50.00
2019-05-02T11:22:13.892Z,49.70
2019-05-02T11:24:43.710Z,48.70
2019-05-02T11:27:12.955Z,56.70
2019-05-02T11:29:42.618Z,59.00
2019-05-02T11:32:12.834Z,58.43
2019-05-02T11:34:42.249Z,62.40
2019-05-02T11:37:12.174Z,60.70
2019-05-02T11:39:46.430Z,66.07
2019-05-02T11:42:12.808Z,66.33
2019-05-02T11:44:42.292Z,73.70
2019-05-02T11:47:12.653Z,77.13
2019-05-02T11:49:46.826Z,72.07
2019-05-02T11:52:13.958Z,67.73
2019-05-02T11:54:44.750Z,68.13
2019-05-02T11:57:14.218Z,63.63
2019-05-02T11:59:43.490Z,64.80
2019-05-02T12:02:24.498Z,65.77
2019-05-02T12:04:55.532Z,67.40
2019-05-02T12:07:24.990Z,65.20
2019-05-02T12:09:57.082Z,67.10
2019-05-02T12:12:27.225Z,68.30
2019-05-02T12:14:56.564Z,66.27
2019-05-02T12:17:26.094Z,65.23
2019-05-02T12:19:55.316Z,64.93
2019-05-02T12:22:24.854Z,64.13
2019-05-02T12:24:54.164Z,57.40
2019-05-02T12:27:24.670Z,56.77
2019-05-02T12:29:57.759Z,55.53
2019-05-02T12:32:24.796Z,58.47
2019-05-02T12:34:54.039Z,57.63
2019-05-02T12:37:23.216Z,57.40
2019-05-02T12:39:52.800Z,54.53
2019-05-02T12:42:23.983Z,54.70
2019-05-02T12:44:53.335Z,54.97
2019-05-02T12:47:22.787Z,56.60
2019-05-02T12:49:52.332Z,55.37
2019-05-02T12:52:22.641Z,57.00
2019-05-02T12:54:52.509Z,62.93
2019-05-02T12:57:22.404Z,56.90
2019-05-02T12:59:52.450Z,59.23
2019-05-02T13:02:32.107Z,57.53
2019-05-02T13:05:02.439Z,49.63
2019-05-02T13:07:31.873Z,46.70
2019-05-02T13:10:02.459Z,44.93
2019-05-02T13:12:34.784Z,41.47
2019-05-02T13:15:04.405Z,45.00
2019-05-02T13:17:35.755Z,40.73
2019-05-02T13:20:07.773Z,38.10
2019-05-02T13:22:54.358Z,35.63
2019-05-02T13:25:27.346Z,35.70
2019-05-02T13:27:55.536Z,33.20
2019-05-02T13:30:46.384Z,31.67
2019-05-02T13:33:18.091Z,32.20
2019-05-02T13:35:53.987Z,29.67
2019-05-02T13:38:23.561Z,30.00
2019-05-02T13:40:52.844Z,28.87
2019-05-02T13:43:24.861Z,30.83
2019-05-02T13:46:26.782Z,27.77
2019-05-02T13:48:56.343Z,22.03
2019-05-02T13:51:25.952Z,21.97
2019-05-02T13:54:01.977Z,24.57
2019-05-02T13:56:52.358Z,27.20
2019-05-02T13:59:22.179Z,22.07
2019-05-02T14:01:53.902Z,28.70
2019-05-02T14:04:23.620Z,21.37
2019-05-02T14:06:53.174Z,24.53
2019-05-02T14:09:44.558Z,15.60
2019-05-02T14:12:28.022Z,18.13
2019-05-02T14:14:57.376Z,19.60
2019-05-02T14:17:26.731Z,18.17
2019-05-02T14:20:07.856Z,17.63
2019-05-02T14:22:28.837Z,19.10
2019-05-02T14:24:58.126Z,14.77
2019-05-02T14:27:27.391Z,15.07
2019-05-02T14:29:56.604Z,16.73
2019-05-02T14:32:26.730Z,18.20
2019-05-02T14:35:13.623Z,14.10
2019-05-02T14:37:42.864Z,12.60
2019-05-02T14:40:19.427Z,12.23
2019-05-02T14:42:48.957Z,16.13
2019-05-02T14:45:28.457Z,14.13
2019-05-02T14:47:49.722Z,10.27
2019-05-02T14:50:26.247Z,12.73
2019-05-02T14:52:52.145Z,9.00
2019-05-02T14:55:24.468Z,13.43
2019-05-02T14:57:57.178Z,12.93
2019-05-02T15:00:26.451Z,13.80
2019-05-02T15:02:55.698Z,10.87
2019-05-02T15:05:29.591Z,11.40
2019-05-02T15:07:56.883Z,14.03
2019-05-02T15:10:27.159Z,12.17
2019-05-02T15:12:59.744Z,12.67
2019-05-02T15:15:27.986Z,12.73
2019-05-02T15:17:58.853Z,12.47
2019-05-02T15:20:37.265Z,12.73
2019-05-02T15:22:59.284Z,13.03
2019-05-02T15:25:31.841Z,14.93
2019-05-02T15:28:02.459Z,12.63
2019-05-02T15:30:36.213Z,12.07
2019-05-02T15:33:07.198Z,11.87
2019-05-02T15:35:50.025Z,12.13
2019-05-02T15:38:27.069Z,12.43
2019-05-02T15:40:53.428Z,10.87
2019-05-02T15:43:22.526Z,11.60
2019-05-02T15:45:52.632Z,11.00
2019-05-02T15:48:27.310Z,13.87
2019-05-02T15:50:55.274Z,12.13
2019-05-02T15:53:39.032Z,12.27
2019-05-02T15:56:18.597Z,13.13
2019-05-02T15:58:38.670Z,12.00
2019-05-02T16:01:22.564Z,11.60
2019-05-02T16:03:53.206Z,10.43
2019-05-02T16:06:30.289Z,10.70
2019-05-02T16:08:54.190Z,12.23
2019-05-02T16:11:23.545Z,16.27
2019-05-02T16:13:55.881Z,11.60
2019-05-02T16:16:24.153Z,12.70
2019-05-02T16:18:53.337Z,11.33
2019-05-02T16:21:30.628Z,13.57
2019-05-02T16:24:18.044Z,13.37
2019-05-02T16:26:47.382Z,11.87
2019-05-02T16:29:23.426Z,11.83
2019-05-02T16:31:54.959Z,11.47
2019-05-02T16:34:27.447Z,14.47
2019-05-02T16:37:13.504Z,15.13
2019-05-02T16:39:42.499Z,18.43
2019-05-02T16:42:12.432Z,13.70
2019-05-02T16:44:42.950Z,13.37
2019-05-02T16:47:13.891Z,14.87
2019-05-02T16:49:43.452Z,19.10
2019-05-02T16:52:13.713Z,13.13
2019-05-02T16:54:43.814Z,15.43
2019-05-02T16:57:17.289Z,16.03
2019-05-02T16:59:44.600Z,17.37
2019-05-02T17:02:13.860Z,17.50
2019-05-02T17:04:43.092Z,17.90
2019-05-02T17:07:17.347Z,17.27
2019-05-02T17:09:57.535Z,16.63
2019-05-02T17:12:26.876Z,15.83
2019-05-02T17:15:14.542Z,14.73
2019-05-02T17:17:44.180Z,19.43
2019-05-02T17:20:16.601Z,15.83
2019-05-02T17:22:50.033Z,17.83
2019-05-02T17:25:16.286Z,17.27
2019-05-02T17:27:45.450Z,16.67
2019-05-02T17:30:15.520Z,16.77
2019-05-02T17:32:44.709Z,16.43
2019-05-02T17:35:14.759Z,16.30
2019-05-02T17:37:48.760Z,18.63
2019-05-02T17:40:16.796Z,17.93
2019-05-02T17:42:46.393Z,15.40
2019-05-02T17:45:16.324Z,16.30
2019-05-02T17:47:47.192Z,19.90
2019-05-02T17:50:49.537Z,19.53
2019-05-02T17:53:17.855Z,21.87
2019-05-02T17:55:47.094Z,17.77
2019-05-02T17:58:16.794Z,22.00
2019-05-02T18:00:54.311Z,17.93
2019-05-02T18:03:24.344Z,20.27
2019-05-02T18:05:50.049Z,21.97
2019-05-02T18:08:19.359Z,18.67
2019-05-02T18:10:50.604Z,18.33
2019-05-02T18:13:19.972Z,20.50
2019-05-02T18:15:49.130Z,20.57
2019-05-02T18:18:18.360Z,23.17
2019-05-02T18:20:47.597Z,17.53
2019-05-02T18:23:18.668Z,17.73
2019-05-02T18:25:48.220Z,18.67
2019-05-02T18:28:22.260Z,16.50
2019-05-02T18:30:50.123Z,15.37
2019-05-02T18:33:19.464Z,20.57
2019-05-02T18:35:48.671Z,20.20
2019-05-02T18:38:20.824Z,16.50
2019-05-02T18:40:48.921Z,17.17
2019-05-02T18:43:18.160Z,18.03
2019-05-02T18:45:47.385Z,14.87
2019-05-02T18:48:16.727Z,17.43
2019-05-02T18:50:47.652Z,19.37
2019-05-02T18:53:18.627Z,19.07
2019-05-02T18:55:47.957Z,24.67
2019-05-02T18:58:17.453Z,16.93
2019-05-02T19:00:48.726Z,21.13
2019-05-02T19:03:18.045Z,21.37
2019-05-02T19:05:51.477Z,19.47
2019-05-02T19:08:29.013Z,24.23
2019-05-02T19:11:04.086Z,23.20
2019-05-02T19:13:22.318Z,28.20
2019-05-02T19:15:53.475Z,22.70
2019-05-02T19:18:23.161Z,22.63
2019-05-02T19:21:03.329Z,21.97
2019-05-02T19:23:34.115Z,23.73
2019-05-02T19:26:10.102Z,22.97
2019-05-02T19:28:42.853Z,21.47
2019-05-02T19:31:12.489Z,22.93
2019-05-02T19:33:42.643Z,23.53
2019-05-02T19:36:16.203Z,21.07
2019-05-02T19:38:43.787Z,26.10
2019-05-02T19:41:13.021Z,23.73
2019-05-02T19:43:49.505Z,21.93
2019-05-02T19:46:13.796Z,24.10
2019-05-02T19:48:43.133Z,31.20
2019-05-02T19:51:18.387Z,26.87
2019-05-02T19:53:44.779Z,23.20
2019-05-02T19:56:14.037Z,23.23
2019-05-02T19:58:46.588Z,25.47
2019-05-02T20:01:17.436Z,26.30
2019-05-02T20:03:45.693Z,25.27
2019-05-02T20:06:15.003Z,26.73
2019-05-02T20:08:44.169Z,25.37
2019-05-02T20:11:13.451Z,25.27
2019-05-02T20:13:42.798Z,27.87
2019-05-02T20:16:36.657Z,27.40
2019-05-02T20:19:04.134Z,25.30
2019-05-02T20:21:45.022Z,24.07
2019-05-02T20:24:19.200Z,27.23
2019-05-02T20:26:46.802Z,24.80
2019-05-02T20:29:16.509Z,28.37
2019-05-02T20:31:45.808Z,27.67
2019-05-02T20:34:14.999Z,27.63
2019-05-02T20:36:44.547Z,26.30
2019-05-02T20:39:14.084Z,32.80
2019-05-02T20:41:43.820Z,29.17
2019-05-02T20:44:13.368Z,31.10
2019-05-02T20:46:42.761Z,35.23
2019-05-02T20:49:12.817Z,30.47
2019-05-02T20:51:43.044Z,37.00
2019-05-02T20:54:13.067Z,33.33
2019-05-02T20:56:42.759Z,31.80
2019-05-02T20:59:12.717Z,30.87
2019-05-02T21:01:42.930Z,36.93
2019-05-02T21:04:12.750Z,33.90
2019-05-02T21:06:52.719Z,35.07
2019-05-02T21:09:47.904Z,33.70
2019-05-02T21:12:17.580Z,32.47
2019-05-02T21:14:47.304Z,32.00
2019-05-02T21:17:16.659Z,31.23
2019-05-02T21:19:46.499Z,38.07
2019-05-02T21:22:22.219Z,36.53
2019-05-02T21:24:52.912Z,42.77
2019-05-02T21:27:22.378Z,36.87
2019-05-02T21:29:52.326Z,39.23
2019-05-02T21:32:22.923Z,34.27
2019-05-02T21:34:52.524Z,34.80
2019-05-02T21:37:22.621Z,31.20
2019-05-02T21:39:52.216Z,38.90
2019-05-02T21:42:22.634Z,31.53
2019-05-02T21:44:52.533Z,29.47
2019-05-02T21:47:22.546Z,33.23
2019-05-02T21:49:58.570Z,29.87
2019-05-02T21:52:39.670Z,29.20
2019-05-02T21:55:28.036Z,29.63
2019-05-02T21:57:57.407Z,28.37
2019-05-02T22:00:47.779Z,26.67
2019-05-02T22:03:17.170Z,27.87
2019-05-02T22:05:46.800Z,25.03
2019-05-02T22:08:16.273Z,26.00
2019-05-02T22:10:45.570Z,24.80
2019-05-02T22:13:15.507Z,26.43
2019-05-02T22:15:44.814Z,25.60
2019-05-02T22:18:14.232Z,23.10
2019-05-02T22:20:43.918Z,21.30
2019-05-02T22:23:13.968Z,23.63
2019-05-02T22:25:43.513Z,23.23
2019-05-02T22:28:12.923Z,24.37
2019-05-02T22:30:42.949Z,25.03
2019-05-02T22:33:12.292Z,22.03
2019-05-02T22:35:43.323Z,23.30
2019-05-02T22:38:34.771Z,23.03
2019-05-02T22:41:04.144Z,24.57
2019-05-02T22:43:33.447Z,21.47
2019-05-02T22:46:05.482Z,21.23
2019-05-02T22:48:34.799Z,21.83
2019-05-02T22:51:04.087Z,25.70
2019-05-02T22:53:33.382Z,21.47
2019-05-02T22:56:03.370Z,18.97
2019-05-02T22:58:33.443Z,20.33
2019-05-02T23:01:03.695Z,19.83
2019-05-02T23:03:33.385Z,21.17
2019-05-02T23:06:02.758Z,21.07
2019-05-02T23:08:32.725Z,21.00
2019-05-02T23:11:03.475Z,19.70
2019-05-02T23:13:32.928Z,22.03
2019-05-02T23:16:02.872Z,18.37
2019-05-02T23:18:32.711Z,17.13
2019-05-02T23:21:02.315Z,18.90
2019-05-02T23:23:32.727Z,22.67
2019-05-02T23:26:22.434Z,17.37
2019-05-02T23:28:52.278Z,17.93
2019-05-02T23:31:22.582Z,18.27
2019-05-02T23:34:02.019Z,18.37
2019-05-02T23:36:32.600Z,20.30
2019-05-02T23:39:02.753Z,24.10
2019-05-02T23:41:32.909Z,19.00
2019-05-02T23:44:02.932Z,14.43
2019-05-02T23:46:32.368Z,18.47
2019-05-02T23:49:02.403Z,18.77
2019-05-02T23:51:32.226Z,19.97
2019-05-02T23:54:02.210Z,11.50
2019-05-02T23:56:32.512Z,15.03
2019-05-02T23:59:02.690Z,15.90
